createdAt,value
2022-10-05T00:02:24.364Z,68322.28
2022-10-05T00:04:57.967Z,68316.22
2022-10-05T00:07:25.372Z,68317.56
2022-10-05T00:09:56.835Z,68315.28
2022-10-05T00:12:25.421Z,68314.53
2022-10-05T00:14:56.751Z,68313.97
2022-10-05T00:17:28.196Z,68317.38
2022-10-05T00:19:55.850Z,68310.75
2022-10-05T00:22:30.760Z,68302.63
2022-10-05T00:25:01.091Z,68308.28
2022-10-05T00:27:34.218Z,68304.72
2022-10-05T00:30:10.911Z,68307.53
2022-10-05T00:32:38.118Z,68298.84
2022-10-05T00:35:05.898Z,68297.16
2022-10-05T00:37:33.459Z,68305.44
2022-10-05T00:40:01.078Z,68307.75
2022-10-05T00:43:07.929Z,68311.13
2022-10-05T00:45:47.856Z,68296.41
2022-10-05T00:48:29.618Z,68294.88
2022-10-05T00:51:11.137Z,68297.16
2022-10-05T00:53:56.901Z,68299.03
2022-10-05T00:56:24.081Z,68299.44
2022-10-05T00:59:19.262Z,68292.06
2022-10-05T01:01:52.810Z,68288.47
2022-10-05T01:04:45.068Z,68290.34
2022-10-05T01:07:41.432Z,68279.00
2022-10-05T01:10:11.681Z,68259.19
2022-10-05T01:12:59.691Z,68282.41
2022-10-05T01:15:29.853Z,68267.13
2022-10-05T01:18:19.691Z,68253.53
2022-10-05T01:21:11.806Z,68248.81
2022-10-05T01:24:00.394Z,68243.13
2022-10-05T01:26:42.524Z,68230.88
2022-10-05T01:29:36.055Z,68232.75
2022-10-05T01:32:23.983Z,68226.72
2022-10-05T01:35:04.932Z,68217.84
2022-10-05T01:38:14.567Z,68199.72
2022-10-05T01:40:59.043Z,68204.63
2022-10-05T01:43:52.223Z,68203.69
2022-10-05T01:46:34.630Z,68198.41
2022-10-05T01:49:42.785Z,68210.09
2022-10-05T01:52:40.844Z,68209.34
2022-10-05T01:55:36.281Z,68203.50
2022-10-05T01:58:30.452Z,68202.56
2022-10-05T02:01:07.339Z,68185.56
2022-10-05T02:03:44.195Z,68179.34
2022-10-05T02:06:23.117Z,68173.31
2022-10-05T02:08:59.007Z,68176.50
2022-10-05T02:11:26.423Z,68181.41
2022-10-05T02:14:00.378Z,68169.50
2022-10-05T02:16:36.659Z,68163.13
2022-10-05T02:19:22.725Z,68165.56
2022-10-05T02:22:03.519Z,68161.59
2022-10-05T02:24:44.555Z,68163.28
2022-10-05T02:27:17.065Z,68158.56
2022-10-05T02:29:48.843Z,68161.97
2022-10-05T02:32:28.290Z,68162.16
2022-10-05T02:35:04.289Z,68156.69
2022-10-05T02:37:57.211Z,68164.06
2022-10-05T02:40:47.187Z,68162.34
2022-10-05T02:43:30.673Z,68170.44
2022-10-05T02:46:04.301Z,68158.38
2022-10-05T02:48:50.306Z,68151.59
2022-10-05T02:51:51.360Z,68146.50
2022-10-05T02:54:26.921Z,68141.03
2022-10-05T02:57:11.055Z,68135.75
2022-10-05T02:59:48.708Z,68132.34
2022-10-05T03:02:26.730Z,68132.94
2022-10-05T03:05:12.949Z,68124.03
2022-10-05T03:08:40.147Z,68124.41
2022-10-05T03:11:39.204Z,68123.09
2022-10-05T03:14:27.086Z,68116.13
2022-10-05T03:17:19.133Z,68120.47
2022-10-05T03:19:56.828Z,68123.66
2022-10-05T03:22:27.171Z,68116.47
2022-10-05T03:25:05.935Z,68116.28
2022-10-05T03:27:49.411Z,68117.22
2022-10-05T03:30:21.824Z,68118.56
2022-10-05T03:33:12.997Z,68110.25
2022-10-05T03:36:00.771Z,68112.50
2022-10-05T03:38:41.546Z,68111.38
2022-10-05T03:41:31.437Z,68113.06
2022-10-05T03:44:01.964Z,68107.41
2022-10-05T03:46:51.795Z,68109.50
2022-10-05T03:49:28.859Z,68106.84
2022-10-05T03:52:05.866Z,68116.09
2022-10-05T03:54:39.868Z,68107.41
2022-10-05T03:57:19.382Z,68110.44
2022-10-05T03:59:59.811Z,68080.88
2022-10-05T04:02:34.502Z,68099.50
2022-10-05T04:05:11.105Z,68098.56
2022-10-05T04:07:53.229Z,68093.84
2022-10-05T04:10:32.951Z,68097.22
2022-10-05T04:13:09.732Z,68098.56
2022-10-05T04:15:46.299Z,68095.91
2022-10-05T04:18:32.455Z,68082.53
2022-10-05T04:21:06.923Z,68088.75
2022-10-05T04:23:44.000Z,68090.63
2022-10-05T04:26:20.212Z,68078.00
2022-10-05T04:29:10.585Z,68092.50
2022-10-05T04:32:08.933Z,68079.13
2022-10-05T04:35:11.201Z,68087.06
2022-10-05T04:37:53.433Z,68075.00
2022-10-05T04:40:32.970Z,68065.19
2022-10-05T04:43:19.004Z,68044.25
2022-10-05T04:46:08.448Z,68051.59
2022-10-05T04:48:57.742Z,68057.28
2022-10-05T04:52:05.905Z,68074.59
2022-10-05T04:54:39.920Z,68057.66
2022-10-05T04:57:13.745Z,68066.69
2022-10-05T05:00:02.816Z,68055.38
2022-10-05T05:03:12.815Z,68058.75
2022-10-05T05:06:15.902Z,68049.72
2022-10-05T05:08:48.623Z,68033.31
2022-10-05T05:11:46.411Z,68031.25
2022-10-05T05:14:52.330Z,68052.91
2022-10-05T05:17:48.166Z,68047.25
2022-10-05T05:20:31.311Z,68028.03
2022-10-05T05:23:12.071Z,68018.59
2022-10-05T05:25:50.995Z,68018.41
2022-10-05T05:28:32.613Z,68008.25
2022-10-05T05:31:21.914Z,68000.88
2022-10-05T05:34:03.100Z,68007.09
2022-10-05T05:36:41.980Z,68006.53
2022-10-05T05:39:38.472Z,68013.16
2022-10-05T05:42:36.908Z,68010.69
2022-10-05T05:45:16.660Z,68015.41
2022-10-05T05:47:52.106Z,68015.78
2022-10-05T05:50:51.030Z,68007.47
2022-10-05T05:53:29.073Z,68001.06
2022-10-05T05:56:13.405Z,67999.75
2022-10-05T05:58:48.956Z,67998.03
2022-10-05T06:01:44.276Z,68010.50
2022-10-05T06:04:19.092Z,68013.91
2022-10-05T06:06:53.219Z,68012.19
2022-10-05T06:09:32.696Z,68004.28
2022-10-05T06:12:16.586Z,67998.25
2022-10-05T06:14:55.375Z,68011.25
2022-10-05T06:17:35.644Z,68008.81
2022-10-05T06:20:06.648Z,67981.91
2022-10-05T06:22:41.082Z,68016.34
2022-10-05T06:25:12.044Z,68028.78
2022-10-05T06:28:03.156Z,68040.66
2022-10-05T06:30:59.787Z,68048.03
2022-10-05T06:33:46.026Z,68061.59
2022-10-05T06:36:23.592Z,68083.66
2022-10-05T06:39:12.726Z,68086.50
2022-10-05T06:42:08.103Z,68091.03
2022-10-05T06:45:03.198Z,68101.00
2022-10-05T06:48:05.049Z,68098.16
2022-10-05T06:51:00.557Z,68099.50
2022-10-05T06:54:04.183Z,68102.13
2022-10-05T06:56:45.704Z,68105.75
2022-10-05T06:59:16.088Z,68109.31
2022-10-05T07:01:50.934Z,68118.19
2022-10-05T07:04:34.582Z,68131.22
2022-10-05T07:07:10.537Z,68139.69
2022-10-05T07:10:04.597Z,68155.38
2022-10-05T07:12:54.187Z,68157.44
2022-10-05T07:15:22.679Z,68180.84
2022-10-05T07:18:22.703Z,68195.19
2022-10-05T07:21:03.813Z,68216.16
2022-10-05T07:24:02.775Z,68231.44
2022-10-05T07:26:48.844Z,68245.03
2022-10-05T07:29:29.076Z,68252.03
2022-10-05T07:32:14.921Z,68270.16
2022-10-05T07:34:42.182Z,68287.72
2022-10-05T07:37:39.513Z,68291.69
2022-10-05T07:40:18.234Z,68309.06
2022-10-05T07:43:07.859Z,68302.25
2022-10-05T07:45:53.435Z,68343.84
2022-10-05T07:48:22.807Z,68363.13
2022-10-05T07:50:59.931Z,68389.56
2022-10-05T07:53:36.843Z,68404.31
2022-10-05T07:56:15.826Z,68417.53
2022-10-05T07:58:47.269Z,68436.47
2022-10-05T08:01:40.963Z,68449.13
2022-10-05T08:04:52.422Z,68446.28
2022-10-05T08:07:20.276Z,68449.09
2022-10-05T08:09:57.654Z,68465.94
2022-10-05T08:12:38.562Z,68457.63
2022-10-05T08:15:15.578Z,68481.28
2022-10-05T08:18:16.752Z,68473.91
2022-10-05T08:20:52.634Z,68467.81
2022-10-05T08:23:47.566Z,68502.84
2022-10-05T08:26:27.421Z,68528.59
2022-10-05T08:29:13.771Z,68547.88
2022-10-05T08:31:46.211Z,68559.06
2022-10-05T08:34:33.708Z,68574.75
2022-10-05T08:37:01.040Z,68586.13
2022-10-05T08:39:39.340Z,68595.75
2022-10-05T08:42:25.875Z,68596.91
2022-10-05T08:45:15.610Z,68616.03
2022-10-05T08:48:27.887Z,68611.50
2022-10-05T08:51:38.576Z,68613.38
2022-10-05T08:54:19.556Z,68616.22
2022-10-05T08:57:06.076Z,68627.19
2022-10-05T08:59:47.127Z,68645.75
2022-10-05T09:03:10.639Z,68677.41
2022-10-05T09:06:05.660Z,68708.09
2022-10-05T09:08:58.600Z,68744.44
2022-10-05T09:11:40.610Z,68772.31
2022-10-05T09:14:20.879Z,68778.50
2022-10-05T09:17:23.942Z,68834.50
2022-10-05T09:20:22.551Z,68860.09
2022-10-05T09:23:12.545Z,68869.19
2022-10-05T09:25:43.091Z,68881.53
2022-10-05T09:28:33.019Z,68910.34
2022-10-05T09:31:12.551Z,68947.38
2022-10-05T09:34:11.065Z,68940.63
2022-10-05T09:37:00.245Z,68952.59
2022-10-05T09:39:40.552Z,68981.16
2022-10-05T09:42:46.166Z,68969.66
2022-10-05T09:45:27.128Z,68947.44
2022-10-05T09:48:18.639Z,68961.41
2022-10-05T09:51:20.402Z,68947.97
2022-10-05T09:54:34.387Z,68962.38
2022-10-05T09:57:20.045Z,68978.88
2022-10-05T10:00:09.582Z,68974.50
2022-10-05T10:03:14.368Z,68968.25
2022-10-05T10:05:48.513Z,68972.63
2022-10-05T10:08:37.792Z,68971.84
2022-10-05T10:11:11.037Z,68992.53
2022-10-05T10:14:12.743Z,68997.69
2022-10-05T10:17:00.374Z,68988.16
2022-10-05T10:20:02.291Z,68975.84
2022-10-05T10:22:52.636Z,68922.41
2022-10-05T10:25:47.950Z,68925.38
2022-10-05T10:28:42.853Z,68906.75
2022-10-05T10:31:28.464Z,68916.81
2022-10-05T10:34:07.907Z,68939.22
2022-10-05T10:36:35.152Z,68964.81
2022-10-05T10:39:16.146Z,68979.06
2022-10-05T10:42:08.412Z,68970.22
2022-10-05T10:44:56.422Z,69013.06
2022-10-05T10:48:04.485Z,69036.56
2022-10-05T10:51:14.485Z,69061.34
2022-10-05T10:54:12.394Z,69109.34
2022-10-05T10:57:10.370Z,69108.63
2022-10-05T11:00:31.089Z,69157.78
2022-10-05T11:03:12.266Z,69165.97
2022-10-05T11:06:18.338Z,69131.41
2022-10-05T11:09:01.814Z,69139.41
2022-10-05T11:11:48.103Z,69163.09
2022-10-05T11:14:42.441Z,69129.69
2022-10-05T11:17:48.133Z,69172.63
2022-10-05T11:20:44.182Z,69178.31
2022-10-05T11:23:20.865Z,69196.56
2022-10-05T11:26:38.554Z,69201.53
2022-10-05T11:29:35.563Z,69199.25
2022-10-05T11:32:27.978Z,69231.91
2022-10-05T11:35:31.153Z,69226.22
2022-10-05T11:38:11.813Z,69190.69
2022-10-05T11:40:54.242Z,69193.88
2022-10-05T11:43:39.599Z,69178.88
2022-10-05T11:46:06.979Z,69175.47
2022-10-05T11:48:49.149Z,69149.97
2022-10-05T11:51:28.728Z,69139.91
2022-10-05T11:54:18.319Z,69125.47
2022-10-05T11:57:06.392Z,69108.63
2022-10-05T11:59:49.397Z,69134.00
2022-10-05T12:02:20.973Z,69121.16
2022-10-05T12:04:57.662Z,69177.94
2022-10-05T12:07:41.050Z,69200.56
2022-10-05T12:10:35.763Z,69221.66
2022-10-05T12:13:28.404Z,69239.50
2022-10-05T12:16:22.161Z,69249.19
2022-10-05T12:18:58.214Z,69240.63
2022-10-05T12:21:52.307Z,69232.47
2022-10-05T12:24:44.286Z,69199.25
2022-10-05T12:27:18.924Z,69231.91
2022-10-05T12:30:17.258Z,69202.09
2022-10-05T12:32:55.902Z,69243.31
2022-10-05T12:35:53.506Z,69250.56
2022-10-05T12:38:46.325Z,69223.75
2022-10-05T12:41:34.672Z,69233.22
2022-10-05T12:44:36.917Z,69226.78
2022-10-05T12:47:11.433Z,69184.44
2022-10-05T12:50:17.099Z,69194.44
2022-10-05T12:53:03.234Z,69205.69
2022-10-05T12:55:42.379Z,69199.41
2022-10-05T12:58:36.459Z,69186.06
2022-10-05T13:01:24.826Z,69166.75
2022-10-05T13:04:05.188Z,69175.06
2022-10-05T13:07:00.096Z,69141.13
2022-10-05T13:09:36.913Z,69169.19
2022-10-05T13:12:20.262Z,69163.28
2022-10-05T13:15:03.262Z,69142.84
2022-10-05T13:18:01.383Z,69163.50
2022-10-05T13:20:42.417Z,69150.81
2022-10-05T13:23:27.023Z,69178.31
2022-10-05T13:26:38.740Z,69168.25
2022-10-05T13:29:23.992Z,69158.34
2022-10-05T13:31:56.727Z,69157.97
2022-10-05T13:35:01.431Z,69150.25
2022-10-05T13:37:32.299Z,69168.63
2022-10-05T13:40:13.191Z,69174.50
2022-10-05T13:43:03.980Z,69194.44
2022-10-05T13:45:57.110Z,69214.25
2022-10-05T13:48:43.251Z,69214.41
2022-10-05T13:51:33.434Z,69245.78
2022-10-05T13:54:16.970Z,69258.72
2022-10-05T13:56:51.090Z,69264.59
2022-10-05T14:00:02.172Z,69251.72
2022-10-05T14:02:41.794Z,69278.13
2022-10-05T14:05:24.499Z,69284.59
2022-10-05T14:08:17.314Z,69280.41
2022-10-05T14:10:47.231Z,69308.34
2022-10-05T14:13:41.032Z,69306.81
2022-10-05T14:16:26.427Z,69319.22
2022-10-05T14:18:58.032Z,69322.63
2022-10-05T14:21:29.155Z,69315.38
2022-10-05T14:24:32.181Z,69310.25
2022-10-05T14:27:24.392Z,69332.50
2022-10-05T14:29:56.910Z,69312.75
2022-10-05T14:32:25.564Z,69321.28
2022-10-05T14:34:59.839Z,69317.88
2022-10-05T14:38:00.848Z,69337.63
2022-10-05T14:40:37.077Z,69347.16
2022-10-05T14:43:16.532Z,69332.34
2022-10-05T14:46:23.285Z,69330.22
2022-10-05T14:49:13.489Z,69342.75
2022-10-05T14:51:42.854Z,69324.72
2022-10-05T14:54:32.328Z,69322.44
2022-10-05T14:57:02.480Z,69327.59
2022-10-05T14:59:46.035Z,69345.63
2022-10-05T15:02:38.306Z,69349.06
2022-10-05T15:05:17.189Z,69316.19
2022-10-05T15:07:51.305Z,69311.38
2022-10-05T15:10:49.982Z,69293.13
2022-10-05T15:13:22.249Z,69269.19
2022-10-05T15:15:57.645Z,69229.47
2022-10-05T15:18:34.966Z,69250.19
2022-10-05T15:21:11.388Z,69221.66
2022-10-05T15:23:48.698Z,69216.50
2022-10-05T15:26:40.564Z,69222.41
2022-10-05T15:29:29.603Z,69229.22
2022-10-05T15:32:15.544Z,69216.69
2022-10-05T15:35:15.089Z,69209.69
2022-10-05T15:37:54.742Z,69204.13
2022-10-05T15:40:45.266Z,69207.00
2022-10-05T15:43:17.616Z,69201.69
2022-10-05T15:46:06.569Z,69196.72
2022-10-05T15:48:35.909Z,69169.38
2022-10-05T15:51:08.242Z,69121.16
2022-10-05T15:54:38.998Z,69144.66
2022-10-05T15:57:18.229Z,69141.25
2022-10-05T16:00:00.636Z,69132.69
2022-10-05T16:02:41.619Z,69108.78
2022-10-05T16:05:44.914Z,69083.31
2022-10-05T16:08:39.159Z,69034.56
2022-10-05T16:11:18.961Z,69033.53
2022-10-05T16:14:10.465Z,69012.25
2022-10-05T16:17:17.328Z,68988.44
2022-10-05T16:20:15.196Z,68964.53
2022-10-05T16:22:52.492Z,68972.44
2022-10-05T16:25:41.269Z,68964.25
2022-10-05T16:28:59.005Z,68953.25
2022-10-05T16:31:32.889Z,68931.06
2022-10-05T16:34:17.307Z,68934.66
2022-10-05T16:37:06.849Z,68943.19
2022-10-05T16:39:46.432Z,68949.69
2022-10-05T16:42:26.597Z,68948.31
2022-10-05T16:44:54.001Z,68949.84
2022-10-05T16:47:57.759Z,68944.75
2022-10-05T16:50:37.186Z,68940.91
2022-10-05T16:53:32.218Z,68935.22
2022-10-05T16:56:26.133Z,68950.81
2022-10-05T16:59:01.271Z,68930.50
2022-10-05T17:01:50.180Z,68913.88
2022-10-05T17:04:48.058Z,68921.94
2022-10-05T17:07:46.707Z,68906.75
2022-10-05T17:10:38.900Z,68901.63
2022-10-05T17:13:45.160Z,68895.75
2022-10-05T17:16:23.565Z,68897.47
2022-10-05T17:19:23.271Z,68904.31
2022-10-05T17:22:00.961Z,68899.19
2022-10-05T17:25:08.323Z,68890.66
2022-10-05T17:27:58.567Z,68871.31
2022-10-05T17:30:54.032Z,68874.69
2022-10-05T17:33:33.910Z,68862.94
2022-10-05T17:36:11.133Z,68849.69
2022-10-05T17:38:47.533Z,68839.44
2022-10-05T17:41:30.909Z,68832.78
2022-10-05T17:44:13.654Z,68833.56
2022-10-05T17:46:46.370Z,68828.63
2022-10-05T17:49:40.467Z,68832.63
2022-10-05T17:52:44.573Z,68826.38
2022-10-05T17:55:43.382Z,68805.09
2022-10-05T17:58:27.566Z,68815.75
2022-10-05T18:01:01.718Z,68803.06
2022-10-05T18:03:52.325Z,68792.38
2022-10-05T18:06:37.540Z,68793.75
2022-10-05T18:09:13.888Z,68781.59
2022-10-05T18:12:19.129Z,68786.34
2022-10-05T18:15:22.370Z,68778.75
2022-10-05T18:18:21.131Z,68771.75
2022-10-05T18:21:35.848Z,68767.19
2022-10-05T18:24:22.261Z,68756.00
2022-10-05T18:27:11.575Z,68763.03
2022-10-05T18:30:05.203Z,68759.81
2022-10-05T18:33:03.651Z,68731.88
2022-10-05T18:35:50.774Z,68759.25
2022-10-05T18:38:56.755Z,68756.00
2022-10-05T18:41:57.954Z,68744.44
2022-10-05T18:44:39.738Z,68757.34
2022-10-05T18:47:27.633Z,68754.13
2022-10-05T18:50:29.530Z,68757.53
2022-10-05T18:53:02.526Z,68763.22
2022-10-05T18:55:47.959Z,68756.97
2022-10-05T18:58:33.125Z,68764.38
2022-10-05T19:01:07.510Z,68771.19
2022-10-05T19:04:02.365Z,68763.78
2022-10-05T19:06:36.362Z,68768.91
2022-10-05T19:09:40.528Z,68772.88
2022-10-05T19:12:41.249Z,68772.88
2022-10-05T19:15:24.952Z,68773.44
2022-10-05T19:18:10.454Z,68767.38
2022-10-05T19:20:49.831Z,68757.13
2022-10-05T19:23:43.059Z,68754.69
2022-10-05T19:26:39.399Z,68753.75
2022-10-05T19:29:14.579Z,68757.53
2022-10-05T19:31:53.429Z,68751.28
2022-10-05T19:34:49.537Z,68754.69
2022-10-05T19:37:21.597Z,68756.56
2022-10-05T19:40:27.007Z,68749.00
2022-10-05T19:43:02.396Z,68741.06
2022-10-05T19:45:37.115Z,68744.84
2022-10-05T19:48:51.626Z,68733.66
2022-10-05T19:51:29.414Z,68734.78
2022-10-05T19:54:25.264Z,68745.22
2022-10-05T19:56:54.380Z,68750.53
2022-10-05T19:59:32.010Z,68756.78
2022-10-05T20:01:59.745Z,68746.16
2022-10-05T20:04:41.442Z,68760.19
2022-10-05T20:07:17.479Z,68742.75
2022-10-05T20:09:52.934Z,68746.91
2022-10-05T20:12:22.976Z,68745.03
2022-10-05T20:15:26.699Z,68743.13
2022-10-05T20:18:13.051Z,68745.44
2022-10-05T20:20:45.819Z,68753.16
2022-10-05T20:23:24.347Z,68756.19
2022-10-05T20:26:11.458Z,68756.97
2022-10-05T20:28:38.935Z,68757.91
2022-10-05T20:31:08.184Z,68763.41
2022-10-05T20:33:35.804Z,68773.84
2022-10-05T20:36:03.740Z,68772.13
2022-10-05T20:38:31.810Z,68771.94
2022-10-05T20:40:59.322Z,68754.13
2022-10-05T20:43:26.553Z,68750.31
2022-10-05T20:45:54.179Z,68750.53
2022-10-05T20:48:21.587Z,68764.38
2022-10-05T20:50:48.902Z,68754.13
2022-10-05T20:53:16.200Z,68755.66
2022-10-05T20:55:43.493Z,68769.06
2022-10-05T20:58:11.793Z,68772.88
2022-10-05T21:00:58.107Z,68780.44
2022-10-05T21:03:25.378Z,68809.69
2022-10-05T21:05:52.665Z,68837.72
2022-10-05T21:08:19.935Z,68828.25
2022-10-05T21:10:47.178Z,68818.38
2022-10-05T21:13:14.515Z,68812.53
2022-10-05T21:15:41.767Z,68805.69
2022-10-05T21:18:08.945Z,68805.13
2022-10-05T21:20:36.249Z,68796.59
2022-10-05T21:23:03.433Z,68800.75
2022-10-05T21:25:31.328Z,68803.41
2022-10-05T21:27:58.457Z,68808.91
2022-10-05T21:30:25.990Z,68824.66
2022-10-05T21:35:27.474Z,68807.59
2022-10-05T21:37:54.638Z,68827.09
2022-10-05T21:40:21.825Z,68836.03
2022-10-05T21:42:49.164Z,68827.88
2022-10-05T21:45:16.535Z,68841.72
2022-10-05T21:47:43.756Z,68852.91
2022-10-05T21:50:11.040Z,68857.06
2022-10-05T21:52:38.365Z,68857.66
2022-10-05T21:55:06.497Z,68862.03
2022-10-05T21:57:35.586Z,68865.63
2022-10-05T22:00:06.872Z,68874.88
2022-10-05T22:02:34.330Z,68886.66
2022-10-05T22:05:01.786Z,68906.75
2022-10-05T22:07:29.189Z,68911.88
2022-10-05T22:09:56.511Z,68899.56
2022-10-05T22:12:24.467Z,68905.44
2022-10-05T22:14:51.692Z,68927.06
2022-10-05T22:17:25.413Z,68944.16
2022-10-05T22:19:54.547Z,68964.25
2022-10-05T22:22:23.192Z,68986.28
2022-10-05T22:24:50.948Z,68987.63
2022-10-05T22:27:18.689Z,68970.78
2022-10-05T22:29:46.780Z,68988.44
2022-10-05T22:32:13.978Z,69017.03
2022-10-05T22:34:41.231Z,69005.81
2022-10-05T22:37:13.011Z,68993.69
2022-10-05T22:39:40.549Z,68990.06
2022-10-05T22:42:08.621Z,69010.78
2022-10-05T22:44:36.201Z,69028.03
2022-10-05T22:47:04.558Z,69020.28
2022-10-05T22:49:32.068Z,69021.03
2022-10-05T22:51:59.340Z,69017.22
2022-10-05T22:54:30.019Z,68993.00
2022-10-05T22:56:58.446Z,69006.78
2022-10-05T22:59:25.657Z,68994.59
2022-10-05T23:01:52.996Z,68996.53
2022-10-05T23:04:20.474Z,68984.56
2022-10-05T23:06:48.044Z,68985.31
2022-10-05T23:09:15.809Z,68999.56
2022-10-05T23:11:42.908Z,69005.81
2022-10-05T23:14:10.147Z,69013.63
2022-10-05T23:16:37.711Z,69002.78
2022-10-05T23:19:05.040Z,69000.13
2022-10-05T23:21:32.465Z,69002.06
2022-10-05T23:23:59.779Z,68983.44
2022-10-05T23:26:27.215Z,68958.84
2022-10-05T23:28:54.585Z,68970.78
2022-10-05T23:31:24.638Z,68995.78
2022-10-05T23:33:53.557Z,69005.09
2022-10-05T23:36:22.774Z,69004.50
2022-10-05T23:38:50.904Z,68990.84
2022-10-05T23:41:21.765Z,68995.00
2022-10-05T23:43:49.373Z,68994.25
2022-10-05T23:46:17.748Z,68982.88
2022-10-05T23:48:45.071Z,68972.63
2022-10-05T23:51:13.621Z,68971.31
2022-10-05T23:53:41.017Z,68960.84
2022-10-05T23:56:08.278Z,68954.03
2022-10-05T23:58:35.564Z,68958.00
